createdAt,value
2023-10-26T00:01:20.798Z,24.23
2023-10-26T00:03:26.240Z,24.23
2023-10-26T00:05:31.905Z,24.23
2023-10-26T00:07:37.623Z,24.23
2023-10-26T00:09:42.853Z,24.23
2023-10-26T00:11:48.215Z,24.23
2023-10-26T00:13:53.637Z,24.22
2023-10-26T00:15:58.981Z,24.22
2023-10-26T00:18:04.683Z,24.22
2023-10-26T00:20:10.278Z,24.22
2023-10-26T00:22:16.011Z,24.22
2023-10-26T00:24:21.399Z,24.22
2023-10-26T00:26:26.801Z,24.22
2023-10-26T00:28:32.309Z,24.22
2023-10-26T00:30:37.659Z,24.22
2023-10-26T00:32:43.045Z,24.22
2023-10-26T00:34:48.450Z,24.22
2023-10-26T00:36:53.822Z,24.21
2023-10-26T00:38:59.256Z,24.22
2023-10-26T00:41:04.660Z,24.21
2023-10-26T00:43:09.895Z,24.21
2023-10-26T00:45:15.194Z,24.22
2023-10-26T00:47:20.678Z,24.22
2023-10-26T00:49:26.154Z,24.22
2023-10-26T00:51:31.662Z,24.21
2023-10-26T00:53:37.123Z,24.2
2023-10-26T00:55:42.327Z,24.22
2023-10-26T00:57:47.873Z,24.21
2023-10-26T00:59:53.439Z,24.22
2023-10-26T01:01:59.067Z,24.22
2023-10-26T01:04:04.524Z,24.22
2023-10-26T01:06:09.925Z,24.23
2023-10-26T01:08:15.311Z,24.23
2023-10-26T01:10:20.733Z,24.24
2023-10-26T01:12:26.222Z,24.23
2023-10-26T01:15:13.193Z,24.2
2023-10-26T01:17:18.930Z,24.22
2023-10-26T01:19:24.426Z,24.23
2023-10-26T01:21:30.007Z,24.23
2023-10-26T01:23:35.350Z,24.23
2023-10-26T01:25:40.578Z,24.23
2023-10-26T01:27:46.032Z,24.24
2023-10-26T01:29:51.479Z,24.24
2023-10-26T01:31:56.910Z,24.24
2023-10-26T01:34:02.246Z,24.24
2023-10-26T01:36:07.608Z,24.24
2023-10-26T01:38:13.024Z,24.24
2023-10-26T01:40:18.459Z,24.21
2023-10-26T01:42:23.931Z,24.22
2023-10-26T01:44:29.335Z,24.23
2023-10-26T01:46:34.792Z,24.23
2023-10-26T01:48:40.232Z,24.23
2023-10-26T01:50:45.872Z,24.23
2023-10-26T01:52:51.213Z,24.23
2023-10-26T01:54:56.650Z,24.23
2023-10-26T01:57:01.919Z,24.23
2023-10-26T01:59:07.531Z,24.23
2023-10-26T02:01:12.969Z,24.23
2023-10-26T02:03:18.585Z,24.22
2023-10-26T02:05:24.237Z,24.23
2023-10-26T02:07:29.694Z,24.22
2023-10-26T02:09:35.037Z,24.22
2023-10-26T02:11:40.263Z,24.22
2023-10-26T02:13:45.606Z,24.22
2023-10-26T02:15:50.848Z,24.21
2023-10-26T02:17:56.212Z,24.2
2023-10-26T02:20:01.849Z,24.21
2023-10-26T02:22:07.276Z,24.21
2023-10-26T02:24:12.733Z,24.21
2023-10-26T02:26:18.360Z,24.21
2023-10-26T02:28:23.764Z,24.21
2023-10-26T02:30:29.279Z,24.2
2023-10-26T02:32:34.690Z,24.2
2023-10-26T02:34:40.233Z,24.2
2023-10-26T02:36:46.176Z,24.2
2023-10-26T02:38:51.637Z,24.2
2023-10-26T02:40:57.362Z,24.21
2023-10-26T02:43:04.132Z,24.21
2023-10-26T02:45:09.685Z,24.21
2023-10-26T02:47:15.120Z,24.2
2023-10-26T02:49:20.352Z,24.21
2023-10-26T02:51:25.611Z,24.2
2023-10-26T02:53:31.029Z,24.19
2023-10-26T02:55:36.380Z,24.18
2023-10-26T02:57:41.903Z,24.18
2023-10-26T02:59:47.355Z,24.17
2023-10-26T03:01:52.901Z,24.15
2023-10-26T03:03:58.392Z,24.15
2023-10-26T03:06:03.936Z,24.14
2023-10-26T03:08:09.310Z,24.12
2023-10-26T03:10:14.782Z,24.1
2023-10-26T03:12:20.326Z,24.1
2023-10-26T03:14:25.844Z,24.1
2023-10-26T03:16:31.438Z,24.09
2023-10-26T03:18:36.940Z,24.08
2023-10-26T03:20:42.365Z,24.08
2023-10-26T03:22:47.704Z,24.07
2023-10-26T03:24:53.156Z,24.06
2023-10-26T03:26:58.613Z,24.04
2023-10-26T03:29:04.143Z,24.04
2023-10-26T03:31:09.578Z,24.03
2023-10-26T03:33:15.086Z,24.02
2023-10-26T03:35:20.874Z,24.02
2023-10-26T03:37:26.305Z,24.02
2023-10-26T03:39:31.586Z,24.02
2023-10-26T03:41:37.203Z,24.02
2023-10-26T03:43:42.534Z,24.01
2023-10-26T03:45:47.875Z,24.01
2023-10-26T03:47:53.348Z,24
2023-10-26T03:49:59.261Z,24
2023-10-26T03:52:04.602Z,24
2023-10-26T03:54:10.054Z,23.98
2023-10-26T03:56:15.474Z,23.98
2023-10-26T03:58:20.810Z,23.97
2023-10-26T04:00:26.192Z,23.97
2023-10-26T04:02:31.683Z,23.96
2023-10-26T04:04:37.120Z,23.96
2023-10-26T04:06:42.470Z,23.96
2023-10-26T04:08:47.902Z,23.95
2023-10-26T04:10:53.336Z,23.95
2023-10-26T04:12:58.689Z,23.94
2023-10-26T04:15:03.938Z,23.94
2023-10-26T04:17:09.463Z,23.93
2023-10-26T04:19:15.027Z,23.92
2023-10-26T04:21:20.358Z,23.92
2023-10-26T04:23:25.996Z,23.92
2023-10-26T04:25:42.680Z,23.91
2023-10-26T04:27:59.490Z,23.91
2023-10-26T04:30:04.843Z,23.91
2023-10-26T04:32:10.275Z,23.91
2023-10-26T04:34:15.653Z,23.9
2023-10-26T04:36:20.984Z,23.89
2023-10-26T04:38:26.601Z,23.89
2023-10-26T04:40:31.840Z,23.89
2023-10-26T04:42:36.966Z,23.89
2023-10-26T04:44:42.738Z,23.89
2023-10-26T04:46:50.409Z,23.88
2023-10-26T04:48:57.200Z,23.87
2023-10-26T04:51:02.637Z,23.86
2023-10-26T04:53:08.181Z,23.84
2023-10-26T04:55:13.724Z,23.84
2023-10-26T04:57:20.306Z,23.83
2023-10-26T04:59:25.671Z,23.82
2023-10-26T05:01:31.001Z,23.82
2023-10-26T05:03:36.775Z,23.82
2023-10-26T05:05:42.253Z,23.8
2023-10-26T05:07:47.679Z,23.8
2023-10-26T05:09:53.119Z,23.78
2023-10-26T05:11:58.656Z,23.79
2023-10-26T05:14:04.088Z,23.8
2023-10-26T05:16:09.364Z,23.81
2023-10-26T05:18:14.855Z,23.8
2023-10-26T05:20:20.510Z,23.79
2023-10-26T05:22:25.756Z,23.78
2023-10-26T05:24:31.225Z,23.78
2023-10-26T05:26:36.746Z,23.78
2023-10-26T05:28:42.070Z,23.77
2023-10-26T05:30:47.436Z,23.77
2023-10-26T05:32:52.874Z,23.78
2023-10-26T05:34:58.494Z,23.79
2023-10-26T05:37:03.973Z,23.8
2023-10-26T05:39:09.400Z,23.81
2023-10-26T05:41:15.224Z,23.82
2023-10-26T05:43:20.660Z,23.83
2023-10-26T05:45:26.157Z,23.84
2023-10-26T05:47:31.555Z,23.85
2023-10-26T05:49:37.007Z,23.87
2023-10-26T05:51:42.318Z,23.88
2023-10-26T05:53:47.851Z,23.89
2023-10-26T05:55:53.096Z,23.9
2023-10-26T05:57:58.641Z,23.92
2023-10-26T06:00:04.115Z,23.93
2023-10-26T06:02:09.627Z,23.94
2023-10-26T06:04:15.070Z,23.94
2023-10-26T06:06:20.633Z,23.95
2023-10-26T06:08:26.021Z,23.96
2023-10-26T06:10:31.496Z,23.97
2023-10-26T06:12:36.974Z,23.96
2023-10-26T06:14:42.485Z,23.96
2023-10-26T06:16:48.328Z,23.95
2023-10-26T06:18:53.964Z,23.96
2023-10-26T06:20:59.586Z,23.96
2023-10-26T06:23:05.359Z,23.96
2023-10-26T06:25:10.798Z,23.96
2023-10-26T06:27:16.322Z,23.97
2023-10-26T06:29:21.758Z,23.98
2023-10-26T06:31:27.544Z,23.98
2023-10-26T06:33:33.073Z,23.98
2023-10-26T06:35:38.508Z,23.97
2023-10-26T06:37:44.445Z,23.96
2023-10-26T06:39:54.008Z,23.95
2023-10-26T06:41:59.569Z,23.94
2023-10-26T06:44:07.748Z,23.93
2023-10-26T06:46:15.566Z,23.92
2023-10-26T06:48:23.684Z,23.91
2023-10-26T06:50:31.864Z,23.91
2023-10-26T06:52:40.270Z,23.89
2023-10-26T06:54:45.753Z,23.88
2023-10-26T06:57:01.599Z,23.87
2023-10-26T06:59:07.236Z,23.85
2023-10-26T07:01:20.059Z,23.85
2023-10-26T07:03:26.442Z,23.84
2023-10-26T07:05:39.968Z,23.83
2023-10-26T07:07:48.144Z,23.82
2023-10-26T07:09:56.150Z,23.81
2023-10-26T07:12:04.283Z,23.79
2023-10-26T07:14:12.149Z,23.78
2023-10-26T07:16:19.860Z,23.77
2023-10-26T07:18:30.670Z,23.77
2023-10-26T07:20:44.965Z,23.76
2023-10-26T07:22:52.750Z,23.75
2023-10-26T07:25:06.496Z,23.74
2023-10-26T07:27:14.622Z,23.74
2023-10-26T07:29:20.343Z,23.73
2023-10-26T07:31:25.854Z,23.73
2023-10-26T07:33:31.327Z,23.73
2023-10-26T07:35:36.989Z,23.72
2023-10-26T07:37:42.315Z,23.71
2023-10-26T07:40:38.198Z,23.71
2023-10-26T07:42:43.582Z,23.71
2023-10-26T07:44:50.748Z,23.71
2023-10-26T07:46:56.190Z,23.71
2023-10-26T07:49:01.635Z,23.7
2023-10-26T07:51:07.116Z,23.69
2023-10-26T07:53:12.420Z,23.69
2023-10-26T07:55:17.947Z,23.69
2023-10-26T07:57:23.397Z,23.68
2023-10-26T07:59:29.037Z,23.67
2023-10-26T08:01:34.446Z,23.67
2023-10-26T08:03:40.188Z,23.67
2023-10-26T08:05:45.774Z,23.67
2023-10-26T08:07:51.294Z,23.66
2023-10-26T08:09:56.647Z,23.66
2023-10-26T08:12:02.131Z,23.66
2023-10-26T08:14:24.754Z,23.65
2023-10-26T08:18:48.542Z,23.67
2023-10-26T08:20:55.408Z,23.68
2023-10-26T08:23:01.177Z,23.69
2023-10-26T08:25:06.891Z,23.69
2023-10-26T08:27:12.428Z,23.68
2023-10-26T08:29:24.817Z,23.67
2023-10-26T08:31:33.505Z,23.66
2023-10-26T08:33:39.242Z,23.66
2023-10-26T08:35:44.744Z,23.66
2023-10-26T08:37:50.208Z,23.66
2023-10-26T08:39:55.718Z,23.67
2023-10-26T08:42:01.257Z,23.67
2023-10-26T08:44:06.789Z,23.65
2023-10-26T08:46:12.301Z,23.66
2023-10-26T08:48:18.110Z,23.65
2023-10-26T08:50:23.697Z,23.64
2023-10-26T08:52:29.309Z,23.63
2023-10-26T08:54:34.732Z,23.61
2023-10-26T08:56:40.276Z,23.61
2023-10-26T08:58:45.743Z,23.61
2023-10-26T09:00:51.257Z,23.6
2023-10-26T09:02:56.912Z,23.59
2023-10-26T09:05:02.878Z,23.59
2023-10-26T09:07:08.702Z,23.59
2023-10-26T09:09:14.141Z,23.59
2023-10-26T09:11:19.794Z,23.59
2023-10-26T09:13:25.456Z,23.58
2023-10-26T09:15:31.487Z,23.58
2023-10-26T09:17:37.017Z,23.59
2023-10-26T09:19:42.810Z,23.58
2023-10-26T09:21:48.433Z,23.59
2023-10-26T09:23:53.860Z,23.6
2023-10-26T09:25:59.204Z,23.59
2023-10-26T09:28:04.852Z,23.6
2023-10-26T09:30:10.319Z,23.63
2023-10-26T09:32:15.681Z,23.66
2023-10-26T09:34:21.174Z,23.69
2023-10-26T09:36:26.705Z,23.72
2023-10-26T09:38:31.951Z,23.71
2023-10-26T09:40:37.449Z,23.7
2023-10-26T09:42:42.926Z,23.69
2023-10-26T09:44:48.277Z,23.67
2023-10-26T09:46:53.731Z,23.65
2023-10-26T09:48:59.270Z,23.64
2023-10-26T09:51:05.207Z,23.63
2023-10-26T09:55:16.925Z,23.62
2023-10-26T09:57:22.549Z,23.62
2023-10-26T09:59:28.098Z,23.62
2023-10-26T10:01:33.683Z,23.63
2023-10-26T10:03:39.525Z,23.64
2023-10-26T10:05:44.821Z,23.64
2023-10-26T10:07:50.259Z,23.64
2023-10-26T10:09:55.714Z,23.64
2023-10-26T10:12:01.042Z,23.63
2023-10-26T10:14:06.491Z,23.62
2023-10-26T10:16:11.994Z,23.6
2023-10-26T10:18:17.674Z,23.6
2023-10-26T10:20:23.113Z,23.6
2023-10-26T10:22:28.530Z,23.61
2023-10-26T10:24:34.017Z,23.61
2023-10-26T10:26:39.337Z,23.63
2023-10-26T10:28:44.675Z,23.63
2023-10-26T10:30:50.139Z,23.63
2023-10-26T10:32:55.820Z,23.61
2023-10-26T10:35:01.397Z,23.59
2023-10-26T10:37:06.735Z,23.6
2023-10-26T10:39:12.078Z,23.59
2023-10-26T10:41:17.516Z,23.59
2023-10-26T10:43:22.859Z,23.6
2023-10-26T10:45:28.521Z,23.6
